sensor_id;sensor_type;location;lat;lon;timestamp;temperature;humidity
46590;DHT22;32313;48.722;9.362;2023-10-13T00:01:20;14.00;99.90
46590;DHT22;32313;48.722;9.362;2023-10-13T00:03:46;14.10;99.90
46590;DHT22;32313;48.722;9.362;2023-10-13T00:06:12;14.10;99.90
46590;DHT22;32313;48.722;9.362;2023-10-13T00:08:38;14.10;99.90
46590;DHT22;32313;48.722;9.362;2023-10-13T00:11:05;14.10;99.90
46590;DHT22;32313;48.722;9.362;2023-10-13T00:13:31;14.00;99.90
46590;DHT22;32313;48.722;9.362;2023-10-13T00:16:15;14.00;99.90
46590;DHT22;32313;48.722;9.362;2023-10-13T00:18:43;13.90;99.90
46590;DHT22;32313;48.722;9.362;2023-10-13T00:21:10;13.80;99.90
46590;DHT22;32313;48.722;9.362;2023-10-13T00:23:43;13.80;99.90
46590;DHT22;32313;48.722;9.362;2023-10-13T00:26:22;13.80;99.90
46590;DHT22;32313;48.722;9.362;2023-10-13T00:28:58;13.70;99.90
46590;DHT22;32313;48.722;9.362;2023-10-13T00:31:37;13.70;99.90
46590;DHT22;32313;48.722;9.362;2023-10-13T00:34:04;13.60;99.90
46590;DHT22;32313;48.722;9.362;2023-10-13T00:36:50;13.50;99.90
46590;DHT22;32313;48.722;9.362;2023-10-13T00:39:35;13.30;99.90
46590;DHT22;32313;48.722;9.362;2023-10-13T00:42:09;13.20;99.90
46590;DHT22;32313;48.722;9.362;2023-10-13T00:44:45;13.00;99.90
46590;DHT22;32313;48.722;9.362;2023-10-13T00:47:16;12.90;99.90
46590;DHT22;32313;48.722;9.362;2023-10-13T00:50:03;12.80;99.90
46590;DHT22;32313;48.722;9.362;2023-10-13T00:52:30;12.60;99.90
46590;DHT22;32313;48.722;9.362;2023-10-13T00:54:59;12.50;99.90
46590;DHT22;32313;48.722;9.362;2023-10-13T00:57:25;12.30;99.90
46590;DHT22;32313;48.722;9.362;2023-10-13T00:59:57;12.20;99.90
46590;DHT22;32313;48.722;9.362;2023-10-13T01:02:24;12.20;99.90
46590;DHT22;32313;48.722;9.362;2023-10-13T01:05:05;12.10;99.90
46590;DHT22;32313;48.722;9.362;2023-10-13T01:07:35;12.00;99.90
46590;DHT22;32313;48.722;9.362;2023-10-13T01:10:09;12.00;99.90
46590;DHT22;32313;48.722;9.362;2023-10-13T01:12:39;11.90;99.90
46590;DHT22;32313;48.722;9.362;2023-10-13T01:15:04;11.90;99.90
46590;DHT22;32313;48.722;9.362;2023-10-13T01:17:36;11.90;99.90
46590;DHT22;32313;48.722;9.362;2023-10-13T01:20:03;11.80;99.90
46590;DHT22;32313;48.722;9.362;2023-10-13T01:22:30;11.70;99.90
46590;DHT22;32313;48.722;9.362;2023-10-13T01:24:57;11.70;99.90
46590;DHT22;32313;48.722;9.362;2023-10-13T01:27:30;11.70;99.90
46590;DHT22;32313;48.722;9.362;2023-10-13T01:29:56;11.60;99.90
46590;DHT22;32313;48.722;9.362;2023-10-13T01:32:29;11.60;99.90
46590;DHT22;32313;48.722;9.362;2023-10-13T01:34:55;11.50;99.90
46590;DHT22;32313;48.722;9.362;2023-10-13T01:37:22;11.50;99.90
46590;DHT22;32313;48.722;9.362;2023-10-13T01:39:48;11.40;99.90
46590;DHT22;32313;48.722;9.362;2023-10-13T01:42:18;11.40;99.90
46590;DHT22;32313;48.722;9.362;2023-10-13T01:44:47;11.30;99.90
46590;DHT22;32313;48.722;9.362;2023-10-13T01:47:13;11.30;99.90
46590;DHT22;32313;48.722;9.362;2023-10-13T01:49:39;11.20;99.90
46590;DHT22;32313;48.722;9.362;2023-10-13T01:52:11;11.20;99.90
46590;DHT22;32313;48.722;9.362;2023-10-13T01:54:43;11.10;99.90
46590;DHT22;32313;48.722;9.362;2023-10-13T01:57:13;11.10;99.90
46590;DHT22;32313;48.722;9.362;2023-10-13T01:59:49;11.10;99.90
46590;DHT22;32313;48.722;9.362;2023-10-13T02:02:16;11.20;99.90
46590;DHT22;32313;48.722;9.362;2023-10-13T02:04:52;11.20;99.90
46590;DHT22;32313;48.722;9.362;2023-10-13T02:07:27;11.10;99.90
46590;DHT22;32313;48.722;9.362;2023-10-13T02:09:56;11.00;99.90
46590;DHT22;32313;48.722;9.362;2023-10-13T02:12:22;11.00;99.90
46590;DHT22;32313;48.722;9.362;2023-10-13T02:14:54;10.90;99.90
46590;DHT22;32313;48.722;9.362;2023-10-13T02:17:20;10.90;99.90
46590;DHT22;32313;48.722;9.362;2023-10-13T02:19:47;10.90;99.90
46590;DHT22;32313;48.722;9.362;2023-10-13T02:22:13;10.80;99.90
46590;DHT22;32313;48.722;9.362;2023-10-13T02:24:52;10.80;99.90
46590;DHT22;32313;48.722;9.362;2023-10-13T02:27:18;10.70;99.90
46590;DHT22;32313;48.722;9.362;2023-10-13T02:29:50;10.70;99.90
46590;DHT22;32313;48.722;9.362;2023-10-13T02:32:15;10.60;99.90
46590;DHT22;32313;48.722;9.362;2023-10-13T02:34:45;10.50;99.90
46590;DHT22;32313;48.722;9.362;2023-10-13T02:37:11;10.50;99.90
46590;DHT22;32313;48.722;9.362;2023-10-13T02:39:40;10.40;99.90
46590;DHT22;32313;48.722;9.362;2023-10-13T02:42:09;10.40;99.90
46590;DHT22;32313;48.722;9.362;2023-10-13T02:44:49;10.30;99.90
46590;DHT22;32313;48.722;9.362;2023-10-13T02:47:15;10.30;99.90
46590;DHT22;32313;48.722;9.362;2023-10-13T02:49:41;10.30;99.90
46590;DHT22;32313;48.722;9.362;2023-10-13T02:52:12;10.30;99.90
46590;DHT22;32313;48.722;9.362;2023-10-13T02:54:39;10.30;99.90
46590;DHT22;32313;48.722;9.362;2023-10-13T02:57:13;10.20;99.90
46590;DHT22;32313;48.722;9.362;2023-10-13T02:59:42;10.20;99.90
46590;DHT22;32313;48.722;9.362;2023-10-13T03:02:14;10.20;99.90
46590;DHT22;32313;48.722;9.362;2023-10-13T03:04:47;10.20;99.90
46590;DHT22;32313;48.722;9.362;2023-10-13T03:07:13;10.30;99.90
46590;DHT22;32313;48.722;9.362;2023-10-13T03:09:49;10.30;99.90
46590;DHT22;32313;48.722;9.362;2023-10-13T03:12:18;10.40;99.90
46590;DHT22;32313;48.722;9.362;2023-10-13T03:14:44;10.40;99.90
46590;DHT22;32313;48.722;9.362;2023-10-13T03:17:20;10.50;99.90
46590;DHT22;32313;48.722;9.362;2023-10-13T03:19:59;10.50;99.90
46590;DHT22;32313;48.722;9.362;2023-10-13T03:22:26;10.40;99.90
46590;DHT22;32313;48.722;9.362;2023-10-13T03:25:00;10.30;99.90
46590;DHT22;32313;48.722;9.362;2023-10-13T03:27:34;10.20;99.90
46590;DHT22;32313;48.722;9.362;2023-10-13T03:30:26;10.20;99.90
46590;DHT22;32313;48.722;9.362;2023-10-13T03:33:12;10.00;99.90
46590;DHT22;32313;48.722;9.362;2023-10-13T03:35:40;9.90;99.90
46590;DHT22;32313;48.722;9.362;2023-10-13T03:38:09;9.90;99.90
46590;DHT22;32313;48.722;9.362;2023-10-13T03:40:49;9.80;99.90
46590;DHT22;32313;48.722;9.362;2023-10-13T03:43:22;9.70;99.90
46590;DHT22;32313;48.722;9.362;2023-10-13T03:45:49;9.70;99.90
46590;DHT22;32313;48.722;9.362;2023-10-13T03:48:19;9.70;99.90
46590;DHT22;32313;48.722;9.362;2023-10-13T03:50:58;9.60;99.90
46590;DHT22;32313;48.722;9.362;2023-10-13T03:53:36;9.50;99.90
46590;DHT22;32313;48.722;9.362;2023-10-13T03:56:15;9.50;99.90
46590;DHT22;32313;48.722;9.362;2023-10-13T03:58:42;9.40;99.90
46590;DHT22;32313;48.722;9.362;2023-10-13T04:01:12;9.40;99.90
46590;DHT22;32313;48.722;9.362;2023-10-13T04:03:42;9.40;99.90
46590;DHT22;32313;48.722;9.362;2023-10-13T04:06:25;9.30;99.90
46590;DHT22;32313;48.722;9.362;2023-10-13T04:09:13;9.30;99.90
46590;DHT22;32313;48.722;9.362;2023-10-13T04:14:28;9.30;99.90
46590;DHT22;32313;48.722;9.362;2023-10-13T04:17:14;9.20;99.90
46590;DHT22;32313;48.722;9.362;2023-10-13T04:19:42;9.20;99.90
46590;DHT22;32313;48.722;9.362;2023-10-13T04:22:36;9.20;99.90
46590;DHT22;32313;48.722;9.362;2023-10-13T04:25:18;9.20;99.90
46590;DHT22;32313;48.722;9.362;2023-10-13T04:28:04;9.20;99.90
46590;DHT22;32313;48.722;9.362;2023-10-13T04:30:42;9.10;99.90
46590;DHT22;32313;48.722;9.362;2023-10-13T04:33:32;9.10;99.90
46590;DHT22;32313;48.722;9.362;2023-10-13T04:36:02;9.10;99.90
46590;DHT22;32313;48.722;9.362;2023-10-13T04:38:50;9.10;99.90
46590;DHT22;32313;48.722;9.362;2023-10-13T04:41:35;9.00;99.90
46590;DHT22;32313;48.722;9.362;2023-10-13T04:44:09;9.00;99.90
46590;DHT22;32313;48.722;9.362;2023-10-13T04:46:54;9.00;99.90
46590;DHT22;32313;48.722;9.362;2023-10-13T04:49:34;8.90;99.90
46590;DHT22;32313;48.722;9.362;2023-10-13T04:52:02;8.90;99.90
46590;DHT22;32313;48.722;9.362;2023-10-13T04:54:42;8.90;99.90
46590;DHT22;32313;48.722;9.362;2023-10-13T04:57:18;8.90;99.90
46590;DHT22;32313;48.722;9.362;2023-10-13T05:00:04;8.90;99.90
46590;DHT22;32313;48.722;9.362;2023-10-13T05:02:46;8.90;99.90
46590;DHT22;32313;48.722;9.362;2023-10-13T05:05:44;8.90;99.90
46590;DHT22;32313;48.722;9.362;2023-10-13T05:08:32;8.80;99.90
46590;DHT22;32313;48.722;9.362;2023-10-13T05:11:16;8.80;99.90
46590;DHT22;32313;48.722;9.362;2023-10-13T05:14:01;8.80;99.90
46590;DHT22;32313;48.722;9.362;2023-10-13T05:16:45;8.80;99.90
46590;DHT22;32313;48.722;9.362;2023-10-13T05:19:30;8.80;99.90
46590;DHT22;32313;48.722;9.362;2023-10-13T05:22:14;8.70;99.90
46590;DHT22;32313;48.722;9.362;2023-10-13T05:24:58;8.70;99.90
46590;DHT22;32313;48.722;9.362;2023-10-13T05:27:59;8.70;99.90
46590;DHT22;32313;48.722;9.362;2023-10-13T05:30:44;8.70;99.90
46590;DHT22;32313;48.722;9.362;2023-10-13T05:33:28;8.70;99.90
46590;DHT22;32313;48.722;9.362;2023-10-13T05:36:12;8.70;99.90
46590;DHT22;32313;48.722;9.362;2023-10-13T05:38:57;8.70;99.90
46590;DHT22;32313;48.722;9.362;2023-10-13T05:41:41;8.60;99.90
46590;DHT22;32313;48.722;9.362;2023-10-13T05:44:39;8.70;99.90
46590;DHT22;32313;48.722;9.362;2023-10-13T05:47:22;8.70;99.90
46590;DHT22;32313;48.722;9.362;2023-10-13T05:50:09;8.70;99.90
46590;DHT22;32313;48.722;9.362;2023-10-13T05:52:45;8.70;99.90
46590;DHT22;32313;48.722;9.362;2023-10-13T05:55:27;8.70;99.90
46590;DHT22;32313;48.722;9.362;2023-10-13T05:58:16;8.70;99.90
46590;DHT22;32313;48.722;9.362;2023-10-13T06:01:00;8.70;99.90
46590;DHT22;32313;48.722;9.362;2023-10-13T06:03:45;8.70;99.90
46590;DHT22;32313;48.722;9.362;2023-10-13T06:06:29;8.80;99.90
46590;DHT22;32313;48.722;9.362;2023-10-13T06:09:13;8.90;99.90
46590;DHT22;32313;48.722;9.362;2023-10-13T06:11:58;9.00;99.90
46590;DHT22;32313;48.722;9.362;2023-10-13T06:14:46;9.10;99.90
46590;DHT22;32313;48.722;9.362;2023-10-13T06:17:30;9.20;99.90
46590;DHT22;32313;48.722;9.362;2023-10-13T06:20:15;9.30;99.90
46590;DHT22;32313;48.722;9.362;2023-10-13T06:22:59;9.50;99.90
46590;DHT22;32313;48.722;9.362;2023-10-13T06:25:52;9.70;99.90
46590;DHT22;32313;48.722;9.362;2023-10-13T06:28:37;9.80;99.90
46590;DHT22;32313;48.722;9.362;2023-10-13T06:31:10;10.10;99.90
46590;DHT22;32313;48.722;9.362;2023-10-13T06:33:54;10.20;99.90
46590;DHT22;32313;48.722;9.362;2023-10-13T06:36:21;10.30;99.90
46590;DHT22;32313;48.722;9.362;2023-10-13T06:38:47;10.50;99.90
46590;DHT22;32313;48.722;9.362;2023-10-13T06:41:20;10.60;99.90
46590;DHT22;32313;48.722;9.362;2023-10-13T06:43:56;10.70;99.90
46590;DHT22;32313;48.722;9.362;2023-10-13T06:46:25;10.90;99.90
46590;DHT22;32313;48.722;9.362;2023-10-13T06:48:53;11.00;99.90
46590;DHT22;32313;48.722;9.362;2023-10-13T06:51:19;11.20;99.90
46590;DHT22;32313;48.722;9.362;2023-10-13T06:53:51;11.40;99.90
46590;DHT22;32313;48.722;9.362;2023-10-13T06:56:22;11.70;99.90
46590;DHT22;32313;48.722;9.362;2023-10-13T06:58:53;11.90;99.90
46590;DHT22;32313;48.722;9.362;2023-10-13T07:01:27;12.30;99.90
46590;DHT22;32313;48.722;9.362;2023-10-13T07:03:53;12.60;99.90
46590;DHT22;32313;48.722;9.362;2023-10-13T07:06:20;12.90;99.90
46590;DHT22;32313;48.722;9.362;2023-10-13T07:08:47;13.40;99.90
46590;DHT22;32313;48.722;9.362;2023-10-13T07:11:27;13.70;99.90
46590;DHT22;32313;48.722;9.362;2023-10-13T07:14:05;14.10;99.90
46590;DHT22;32313;48.722;9.362;2023-10-13T07:16:59;14.50;99.90
46590;DHT22;32313;48.722;9.362;2023-10-13T07:19:26;14.80;99.90
46590;DHT22;32313;48.722;9.362;2023-10-13T07:21:59;15.10;99.90
46590;DHT22;32313;48.722;9.362;2023-10-13T07:24:28;15.10;99.90
46590;DHT22;32313;48.722;9.362;2023-10-13T07:26:59;15.10;99.90
46590;DHT22;32313;48.722;9.362;2023-10-13T07:29:32;15.40;99.90
46590;DHT22;32313;48.722;9.362;2023-10-13T07:32:01;15.90;99.90
46590;DHT22;32313;48.722;9.362;2023-10-13T07:34:36;16.30;99.90
46590;DHT22;32313;48.722;9.362;2023-10-13T07:37:01;16.70;99.90
46590;DHT22;32313;48.722;9.362;2023-10-13T07:39:33;17.20;99.90
46590;DHT22;32313;48.722;9.362;2023-10-13T07:42:00;17.50;99.90
46590;DHT22;32313;48.722;9.362;2023-10-13T07:44:33;17.90;99.90
46590;DHT22;32313;48.722;9.362;2023-10-13T07:47:03;18.20;99.90
46590;DHT22;32313;48.722;9.362;2023-10-13T07:49:37;18.50;99.90
46590;DHT22;32313;48.722;9.362;2023-10-13T07:52:08;18.80;99.90
46590;DHT22;32313;48.722;9.362;2023-10-13T07:54:47;18.80;99.90
46590;DHT22;32313;48.722;9.362;2023-10-13T07:57:15;19.30;99.90
46590;DHT22;32313;48.722;9.362;2023-10-13T07:59:42;19.50;99.90
46590;DHT22;32313;48.722;9.362;2023-10-13T08:02:18;19.70;99.90
46590;DHT22;32313;48.722;9.362;2023-10-13T08:05:02;19.70;99.90
46590;DHT22;32313;48.722;9.362;2023-10-13T08:07:30;19.60;99.90
46590;DHT22;32313;48.722;9.362;2023-10-13T08:09:56;19.20;99.90
46590;DHT22;32313;48.722;9.362;2023-10-13T08:12:25;18.70;99.90
46590;DHT22;32313;48.722;9.362;2023-10-13T08:14:50;18.20;99.90
46590;DHT22;32313;48.722;9.362;2023-10-13T08:17:35;18.20;99.90
46590;DHT22;32313;48.722;9.362;2023-10-13T08:20:00;19.00;99.90
46590;DHT22;32313;48.722;9.362;2023-10-13T08:22:37;19.70;99.90
46590;DHT22;32313;48.722;9.362;2023-10-13T08:25:04;20.10;99.90
46590;DHT22;32313;48.722;9.362;2023-10-13T08:27:48;20.60;99.90
46590;DHT22;32313;48.722;9.362;2023-10-13T08:30:36;21.30;99.90
46590;DHT22;32313;48.722;9.362;2023-10-13T08:33:17;22.00;99.90
46590;DHT22;32313;48.722;9.362;2023-10-13T08:35:44;22.30;99.90
46590;DHT22;32313;48.722;9.362;2023-10-13T08:38:28;22.70;99.90
46590;DHT22;32313;48.722;9.362;2023-10-13T08:41:09;23.20;99.90
46590;DHT22;32313;48.722;9.362;2023-10-13T08:43:51;23.70;99.90
46590;DHT22;32313;48.722;9.362;2023-10-13T08:46:17;23.80;99.90
46590;DHT22;32313;48.722;9.362;2023-10-13T08:48:58;24.30;99.90
46590;DHT22;32313;48.722;9.362;2023-10-13T08:51:34;24.80;99.90
46590;DHT22;32313;48.722;9.362;2023-10-13T08:54:17;25.00;99.90
46590;DHT22;32313;48.722;9.362;2023-10-13T08:56:47;25.50;99.90
46590;DHT22;32313;48.722;9.362;2023-10-13T08:59:22;25.90;99.90
46590;DHT22;32313;48.722;9.362;2023-10-13T09:01:48;26.20;99.90
46590;DHT22;32313;48.722;9.362;2023-10-13T09:04:25;26.30;99.90
46590;DHT22;32313;48.722;9.362;2023-10-13T09:06:58;26.70;98.40
46590;DHT22;32313;48.722;9.362;2023-10-13T09:09:53;26.90;94.90
46590;DHT22;32313;48.722;9.362;2023-10-13T09:12:23;27.30;94.40
46590;DHT22;32313;48.722;9.362;2023-10-13T09:15:12;27.70;93.70
46590;DHT22;32313;48.722;9.362;2023-10-13T09:17:45;28.10;93.70
46590;DHT22;32313;48.722;9.362;2023-10-13T09:20:37;28.10;89.50
46590;DHT22;32313;48.722;9.362;2023-10-13T09:23:11;28.20;90.00
46590;DHT22;32313;48.722;9.362;2023-10-13T09:25:40;28.50;87.30
46590;DHT22;32313;48.722;9.362;2023-10-13T09:28:19;28.60;86.90
46590;DHT22;32313;48.722;9.362;2023-10-13T09:30:51;28.80;87.10
46590;DHT22;32313;48.722;9.362;2023-10-13T09:33:27;29.00;86.90
46590;DHT22;32313;48.722;9.362;2023-10-13T09:36:04;29.00;84.90
46590;DHT22;32313;48.722;9.362;2023-10-13T09:38:33;29.10;80.40
46590;DHT22;32313;48.722;9.362;2023-10-13T09:40:59;29.20;82.80
46590;DHT22;32313;48.722;9.362;2023-10-13T09:43:35;29.20;82.30
46590;DHT22;32313;48.722;9.362;2023-10-13T09:46:04;29.00;78.50
46590;DHT22;32313;48.722;9.362;2023-10-13T09:48:38;29.30;77.40
46590;DHT22;32313;48.722;9.362;2023-10-13T09:51:16;29.70;77.70
46590;DHT22;32313;48.722;9.362;2023-10-13T09:53:56;30.00;78.10
46590;DHT22;32313;48.722;9.362;2023-10-13T09:56:29;30.10;75.60
46590;DHT22;32313;48.722;9.362;2023-10-13T09:59:02;30.20;74.10
46590;DHT22;32313;48.722;9.362;2023-10-13T10:01:40;30.20;74.30
46590;DHT22;32313;48.722;9.362;2023-10-13T10:04:16;30.50;69.80
46590;DHT22;32313;48.722;9.362;2023-10-13T10:06:56;30.70;72.10
46590;DHT22;32313;48.722;9.362;2023-10-13T10:09:30;30.60;68.20
46590;DHT22;32313;48.722;9.362;2023-10-13T10:17:46;31.30;65.80
46590;DHT22;32313;48.722;9.362;2023-10-13T10:20:13;31.70;66.00
46590;DHT22;32313;48.722;9.362;2023-10-13T10:23:05;32.00;63.50
46590;DHT22;32313;48.722;9.362;2023-10-13T10:25:36;32.40;65.00
46590;DHT22;32313;48.722;9.362;2023-10-13T10:28:07;32.70;62.40
46590;DHT22;32313;48.722;9.362;2023-10-13T10:30:35;33.10;61.20
46590;DHT22;32313;48.722;9.362;2023-10-13T10:33:05;33.40;61.50
46590;DHT22;32313;48.722;9.362;2023-10-13T10:35:39;33.30;59.60
46590;DHT22;32313;48.722;9.362;2023-10-13T10:38:13;33.00;56.90
46590;DHT22;32313;48.722;9.362;2023-10-13T10:40:57;33.00;56.00
46590;DHT22;32313;48.722;9.362;2023-10-13T10:46:14;33.30;51.20
46590;DHT22;32313;48.722;9.362;2023-10-13T10:48:40;33.10;50.60
46590;DHT22;32313;48.722;9.362;2023-10-13T10:51:13;33.10;51.50
46590;DHT22;32313;48.722;9.362;2023-10-13T10:53:40;33.50;49.40
46590;DHT22;32313;48.722;9.362;2023-10-13T10:59:56;34.00;46.80
46590;DHT22;32313;48.722;9.362;2023-10-13T11:02:37;34.40;48.50
46590;DHT22;32313;48.722;9.362;2023-10-13T11:05:03;34.50;46.70
46590;DHT22;32313;48.722;9.362;2023-10-13T11:07:31;34.20;48.20
46590;DHT22;32313;48.722;9.362;2023-10-13T11:10:10;33.30;47.80
46590;DHT22;32313;48.722;9.362;2023-10-13T11:16:47;31.50;48.00
46590;DHT22;32313;48.722;9.362;2023-10-13T11:19:17;31.00;51.80
46590;DHT22;32313;48.722;9.362;2023-10-13T11:21:46;31.20;51.40
46590;DHT22;32313;48.722;9.362;2023-10-13T11:24:13;31.40;50.30
46590;DHT22;32313;48.722;9.362;2023-10-13T11:26:39;31.90;46.70
46590;DHT22;32313;48.722;9.362;2023-10-13T11:29:18;32.20;45.20
46590;DHT22;32313;48.722;9.362;2023-10-13T11:31:46;32.80;45.00
46590;DHT22;32313;48.722;9.362;2023-10-13T11:34:19;32.60;44.90
46590;DHT22;32313;48.722;9.362;2023-10-13T11:36:45;32.20;44.10
46590;DHT22;32313;48.722;9.362;2023-10-13T11:39:10;31.70;45.50
46590;DHT22;32313;48.722;9.362;2023-10-13T11:41:43;31.30;45.90
46590;DHT22;32313;48.722;9.362;2023-10-13T11:44:16;31.50;45.00
46590;DHT22;32313;48.722;9.362;2023-10-13T11:46:45;31.90;45.20
46590;DHT22;32313;48.722;9.362;2023-10-13T11:49:13;32.40;44.30
46590;DHT22;32313;48.722;9.362;2023-10-13T11:51:43;33.00;43.80
46590;DHT22;32313;48.722;9.362;2023-10-13T11:54:22;33.60;42.60
46590;DHT22;32313;48.722;9.362;2023-10-13T11:56:49;33.80;41.90
46590;DHT22;32313;48.722;9.362;2023-10-13T11:59:15;34.20;40.40
46590;DHT22;32313;48.722;9.362;2023-10-13T12:01:47;34.40;40.20
46590;DHT22;32313;48.722;9.362;2023-10-13T12:04:32;34.60;39.50
46590;DHT22;32313;48.722;9.362;2023-10-13T12:07:01;34.60;39.30
46590;DHT22;32313;48.722;9.362;2023-10-13T12:09:47;34.90;39.70
46590;DHT22;32313;48.722;9.362;2023-10-13T12:12:23;35.40;38.90
46590;DHT22;32313;48.722;9.362;2023-10-13T12:14:49;35.50;37.40
46590;DHT22;32313;48.722;9.362;2023-10-13T12:17:29;35.40;37.00
46590;DHT22;32313;48.722;9.362;2023-10-13T12:20:04;35.30;36.10
46590;DHT22;32313;48.722;9.362;2023-10-13T12:22:44;35.30;38.00
46590;DHT22;32313;48.722;9.362;2023-10-13T12:25:20;35.30;36.60
46590;DHT22;32313;48.722;9.362;2023-10-13T12:27:58;35.50;36.80
46590;DHT22;32313;48.722;9.362;2023-10-13T12:30:38;35.00;36.00
46590;DHT22;32313;48.722;9.362;2023-10-13T12:33:34;34.30;36.90
46590;DHT22;32313;48.722;9.362;2023-10-13T12:36:03;34.30;37.90
46590;DHT22;32313;48.722;9.362;2023-10-13T12:38:36;34.30;37.50
46590;DHT22;32313;48.722;9.362;2023-10-13T12:41:05;34.40;38.00
46590;DHT22;32313;48.722;9.362;2023-10-13T12:43:49;34.90;37.80
46590;DHT22;32313;48.722;9.362;2023-10-13T12:46:34;34.90;36.60
46590;DHT22;32313;48.722;9.362;2023-10-13T12:49:18;34.70;36.30
46590;DHT22;32313;48.722;9.362;2023-10-13T12:52:02;34.50;37.40
46590;DHT22;32313;48.722;9.362;2023-10-13T12:54:28;34.60;37.30
46590;DHT22;32313;48.722;9.362;2023-10-13T12:57:01;34.50;37.00
46590;DHT22;32313;48.722;9.362;2023-10-13T12:59:28;34.40;37.70
46590;DHT22;32313;48.722;9.362;2023-10-13T13:01:53;34.40;37.30
46590;DHT22;32313;48.722;9.362;2023-10-13T13:04:19;34.40;36.80
46590;DHT22;32313;48.722;9.362;2023-10-13T13:06:51;34.30;37.10
46590;DHT22;32313;48.722;9.362;2023-10-13T13:09:16;34.40;37.40
46590;DHT22;32313;48.722;9.362;2023-10-13T13:11:52;34.50;37.80
46590;DHT22;32313;48.722;9.362;2023-10-13T13:14:23;34.60;37.20
46590;DHT22;32313;48.722;9.362;2023-10-13T13:16:55;34.10;38.60
46590;DHT22;32313;48.722;9.362;2023-10-13T13:19:33;33.60;39.40
46590;DHT22;32313;48.722;9.362;2023-10-13T13:22:08;33.20;39.10
46590;DHT22;32313;48.722;9.362;2023-10-13T13:24:42;33.30;39.60
46590;DHT22;32313;48.722;9.362;2023-10-13T13:27:15;33.20;39.40
46590;DHT22;32313;48.722;9.362;2023-10-13T13:29:45;34.00;38.30
46590;DHT22;32313;48.722;9.362;2023-10-13T13:32:12;34.10;38.20
46590;DHT22;32313;48.722;9.362;2023-10-13T13:34:53;34.40;38.30
46590;DHT22;32313;48.722;9.362;2023-10-13T13:37:32;34.60;37.70
46590;DHT22;32313;48.722;9.362;2023-10-13T13:39:57;35.20;37.30
46590;DHT22;32313;48.722;9.362;2023-10-13T13:42:40;35.20;37.00
46590;DHT22;32313;48.722;9.362;2023-10-13T13:45:12;35.10;36.80
46590;DHT22;32313;48.722;9.362;2023-10-13T13:47:49;34.70;36.30
46590;DHT22;32313;48.722;9.362;2023-10-13T13:50:30;34.60;37.10
46590;DHT22;32313;48.722;9.362;2023-10-13T13:52:58;34.10;36.60
46590;DHT22;32313;48.722;9.362;2023-10-13T13:55:24;34.10;37.50
46590;DHT22;32313;48.722;9.362;2023-10-13T13:57:56;34.50;37.90
46590;DHT22;32313;48.722;9.362;2023-10-13T14:00:21;34.70;36.20
46590;DHT22;32313;48.722;9.362;2023-10-13T14:03:14;34.50;35.90
46590;DHT22;32313;48.722;9.362;2023-10-13T14:06:00;34.30;36.30
46590;DHT22;32313;48.722;9.362;2023-10-13T14:08:26;34.30;37.20
46590;DHT22;32313;48.722;9.362;2023-10-13T14:10:53;34.10;34.70
46590;DHT22;32313;48.722;9.362;2023-10-13T14:13:38;33.80;34.80
46590;DHT22;32313;48.722;9.362;2023-10-13T14:16:18;33.70;34.20
46590;DHT22;32313;48.722;9.362;2023-10-13T14:18:51;33.40;33.50
46590;DHT22;32313;48.722;9.362;2023-10-13T14:21:18;33.10;33.90
46590;DHT22;32313;48.722;9.362;2023-10-13T14:23:50;32.90;34.80
46590;DHT22;32313;48.722;9.362;2023-10-13T14:26:21;32.20;36.30
46590;DHT22;32313;48.722;9.362;2023-10-13T14:28:50;31.40;37.80
46590;DHT22;32313;48.722;9.362;2023-10-13T14:31:36;30.70;38.70
46590;DHT22;32313;48.722;9.362;2023-10-13T14:34:03;30.10;39.60
46590;DHT22;32313;48.722;9.362;2023-10-13T14:36:29;29.60;39.60
46590;DHT22;32313;48.722;9.362;2023-10-13T14:38:55;29.20;39.80
46590;DHT22;32313;48.722;9.362;2023-10-13T14:41:21;28.90;40.50
46590;DHT22;32313;48.722;9.362;2023-10-13T14:43:47;28.70;41.60
46590;DHT22;32313;48.722;9.362;2023-10-13T14:46:20;28.50;41.50
46590;DHT22;32313;48.722;9.362;2023-10-13T14:48:51;28.40;41.70
46590;DHT22;32313;48.722;9.362;2023-10-13T14:51:18;28.30;42.00
46590;DHT22;32313;48.722;9.362;2023-10-13T14:53:47;28.10;42.50
46590;DHT22;32313;48.722;9.362;2023-10-13T14:56:15;28.00;42.20
46590;DHT22;32313;48.722;9.362;2023-10-13T14:58:43;27.90;42.40
46590;DHT22;32313;48.722;9.362;2023-10-13T15:03:50;27.70;42.20
46590;DHT22;32313;48.722;9.362;2023-10-13T15:06:17;27.60;42.80
46590;DHT22;32313;48.722;9.362;2023-10-13T15:08:48;27.50;42.20
46590;DHT22;32313;48.722;9.362;2023-10-13T15:11:14;27.40;42.30
46590;DHT22;32313;48.722;9.362;2023-10-13T15:13:43;27.30;42.50
46590;DHT22;32313;48.722;9.362;2023-10-13T15:16:13;27.20;41.80
46590;DHT22;32313;48.722;9.362;2023-10-13T15:18:40;27.20;42.00
46590;DHT22;32313;48.722;9.362;2023-10-13T15:21:06;27.10;41.00
46590;DHT22;32313;48.722;9.362;2023-10-13T15:23:34;27.10;41.70
46590;DHT22;32313;48.722;9.362;2023-10-13T15:26:10;26.90;41.90
46590;DHT22;32313;48.722;9.362;2023-10-13T15:28:39;26.80;41.70
46590;DHT22;32313;48.722;9.362;2023-10-13T15:31:16;26.80;40.80
46590;DHT22;32313;48.722;9.362;2023-10-13T15:33:54;26.70;41.20
46590;DHT22;32313;48.722;9.362;2023-10-13T15:36:24;26.70;41.00
46590;DHT22;32313;48.722;9.362;2023-10-13T15:38:50;26.50;41.50
46590;DHT22;32313;48.722;9.362;2023-10-13T15:41:23;26.30;43.00
46590;DHT22;32313;48.722;9.362;2023-10-13T15:43:49;26.00;42.60
46590;DHT22;32313;48.722;9.362;2023-10-13T15:46:16;25.90;42.40
46590;DHT22;32313;48.722;9.362;2023-10-13T15:48:42;25.80;42.40
46590;DHT22;32313;48.722;9.362;2023-10-13T15:51:11;25.70;42.30
46590;DHT22;32313;48.722;9.362;2023-10-13T15:53:40;25.60;42.60
46590;DHT22;32313;48.722;9.362;2023-10-13T15:56:06;25.60;42.60
46590;DHT22;32313;48.722;9.362;2023-10-13T15:58:38;25.40;43.00
46590;DHT22;32313;48.722;9.362;2023-10-13T16:01:05;25.30;43.80
46590;DHT22;32313;48.722;9.362;2023-10-13T16:03:34;25.20;44.10
46590;DHT22;32313;48.722;9.362;2023-10-13T16:06:03;25.10;43.70
46590;DHT22;32313;48.722;9.362;2023-10-13T16:08:39;25.10;44.40
46590;DHT22;32313;48.722;9.362;2023-10-13T16:11:13;24.80;46.70
46590;DHT22;32313;48.722;9.362;2023-10-13T16:13:40;24.40;47.50
46590;DHT22;32313;48.722;9.362;2023-10-13T16:16:06;24.10;47.70
46590;DHT22;32313;48.722;9.362;2023-10-13T16:18:39;23.90;48.20
46590;DHT22;32313;48.722;9.362;2023-10-13T16:21:05;23.60;50.00
46590;DHT22;32313;48.722;9.362;2023-10-13T16:23:33;23.30;50.40
46590;DHT22;32313;48.722;9.362;2023-10-13T16:25:59;23.00;52.30
46590;DHT22;32313;48.722;9.362;2023-10-13T16:28:27;22.60;52.90
46590;DHT22;32313;48.722;9.362;2023-10-13T16:30:52;22.30;54.60
46590;DHT22;32313;48.722;9.362;2023-10-13T16:33:21;21.90;56.30
46590;DHT22;32313;48.722;9.362;2023-10-13T16:35:47;21.60;58.50